Aviation Digital Data Service (ADDS)

Output produced by METARs form (1504 UTC 16 January 2018)
found at http://aviationweather.gov/adds/metars/
 
KMCB 161453Z AUTO 36011KT 10SM OVC013 01/M03 A3052 RMK AO2 SLP334 T00111028 51029